sensor_id;sensor_type;location;lat;lon;timestamp;pressure;altitude;pressure_sealevel;temperature;humidity
64679;BME280;51094;53.864;27.676;2023-04-15T00:01:13;99426.47;;;8.48;56.89
64679;BME280;51094;53.864;27.676;2023-04-15T00:03:44;99429.88;;;8.49;57.11
64679;BME280;51094;53.864;27.676;2023-04-15T00:06:12;99432.13;;;8.55;56.92
64679;BME280;51094;53.864;27.676;2023-04-15T00:08:39;99430.19;;;8.58;56.80
64679;BME280;51094;53.864;27.676;2023-04-15T00:11:06;99436.00;;;8.62;56.80
64679;BME280;51094;53.864;27.676;2023-04-15T00:13:32;99346.06;;;8.06;56.81
64679;BME280;51094;53.864;27.676;2023-04-15T00:16:00;99433.50;;;8.60;57.48
64679;BME280;51094;53.864;27.676;2023-04-15T00:18:28;99331.06;;;7.96;56.80
64679;BME280;51094;53.864;27.676;2023-04-15T00:20:55;99346.59;;;7.96;56.40
64679;BME280;51094;53.864;27.676;2023-04-15T00:23:22;99367.66;;;8.20;55.53
64679;BME280;51094;53.864;27.676;2023-04-15T00:25:49;99434.72;;;8.55;55.50
64679;BME280;51094;53.864;27.676;2023-04-15T00:28:16;99351.94;;;7.93;55.51
64679;BME280;51094;53.864;27.676;2023-04-15T00:30:44;99410.09;;;8.32;56.18
64679;BME280;51094;53.864;27.676;2023-04-15T00:33:12;99224.59;;;7.14;54.90
64679;BME280;51094;53.864;27.676;2023-04-15T00:35:39;99411.03;;;8.31;55.38
64679;BME280;51094;53.864;27.676;2023-04-15T00:38:07;99416.16;;;8.32;55.65
64679;BME280;51094;53.864;27.676;2023-04-15T00:40:34;99411.63;;;8.36;56.25
64679;BME280;51094;53.864;27.676;2023-04-15T00:43:01;99436.47;;;8.54;55.52
64679;BME280;51094;53.864;27.676;2023-04-15T00:45:28;99365.81;;;7.92;55.87
64679;BME280;51094;53.864;27.676;2023-04-15T00:47:55;99338.63;;;7.85;54.92
64679;BME280;51094;53.864;27.676;2023-04-15T00:50:22;99365.47;;;7.98;54.82
64679;BME280;51094;53.864;27.676;2023-04-15T00:52:49;99271.50;;;7.38;54.85
64679;BME280;51094;53.864;27.676;2023-04-15T00:55:16;99424.59;;;8.36;55.24
64679;BME280;51094;53.864;27.676;2023-04-15T00:57:43;99413.25;;;8.23;55.16
64679;BME280;51094;53.864;27.676;2023-04-15T01:00:10;99337.50;;;7.89;54.47
64679;BME280;51094;53.864;27.676;2023-04-15T01:02:37;99431.91;;;8.44;55.06
64679;BME280;51094;53.864;27.676;2023-04-15T01:05:05;99420.16;;;8.38;54.63
64679;BME280;51094;53.864;27.676;2023-04-15T01:07:33;99449.88;;;8.47;55.04
64679;BME280;51094;53.864;27.676;2023-04-15T01:10:02;99379.56;;;8.09;54.14
64679;BME280;51094;53.864;27.676;2023-04-15T01:12:31;99437.00;;;8.45;55.21
64679;BME280;51094;53.864;27.676;2023-04-15T01:14:58;99325.50;;;7.74;55.30
64679;BME280;51094;53.864;27.676;2023-04-15T01:17:25;99412.88;;;8.29;55.26
64679;BME280;51094;53.864;27.676;2023-04-15T01:19:55;99444.41;;;8.51;54.80
64679;BME280;51094;53.864;27.676;2023-04-15T01:22:24;99335.09;;;7.86;55.27
64679;BME280;51094;53.864;27.676;2023-04-15T01:25:08;99459.22;;;8.49;55.11
64679;BME280;51094;53.864;27.676;2023-04-15T01:27:38;99401.41;;;8.19;55.21
64679;BME280;51094;53.864;27.676;2023-04-15T01:30:07;99413.72;;;8.29;55.12
64679;BME280;51094;53.864;27.676;2023-04-15T01:32:35;99436.25;;;8.43;54.89
64679;BME280;51094;53.864;27.676;2023-04-15T01:35:02;99422.88;;;8.21;55.10
64679;BME280;51094;53.864;27.676;2023-04-15T01:37:29;99446.16;;;8.37;54.82
64679;BME280;51094;53.864;27.676;2023-04-15T01:39:56;99309.16;;;7.58;55.26
64679;BME280;51094;53.864;27.676;2023-04-15T01:42:23;99404.63;;;8.08;55.08
64679;BME280;51094;53.864;27.676;2023-04-15T01:44:50;99424.53;;;8.22;55.53
64679;BME280;51094;53.864;27.676;2023-04-15T01:47:17;99398.59;;;8.08;55.05
64679;BME280;51094;53.864;27.676;2023-04-15T01:49:44;99422.03;;;8.20;55.18
64679;BME280;51094;53.864;27.676;2023-04-15T01:52:11;99367.28;;;7.82;55.12
64679;BME280;51094;53.864;27.676;2023-04-15T01:54:39;99346.38;;;7.71;55.28
64679;BME280;51094;53.864;27.676;2023-04-15T01:57:06;99421.38;;;8.17;54.97
64679;BME280;51094;53.864;27.676;2023-04-15T01:59:33;99361.34;;;7.80;54.81
64679;BME280;51094;53.864;27.676;2023-04-15T02:02:00;99371.84;;;7.93;55.08
64679;BME280;51094;53.864;27.676;2023-04-15T02:04:27;99449.41;;;8.40;55.07
64679;BME280;51094;53.864;27.676;2023-04-15T02:06:58;99415.09;;;8.21;55.00
64679;BME280;51094;53.864;27.676;2023-04-15T02:09:25;99453.09;;;8.36;55.34
64679;BME280;51094;53.864;27.676;2023-04-15T02:11:52;99447.16;;;8.34;55.64
64679;BME280;51094;53.864;27.676;2023-04-15T02:14:22;99412.03;;;8.14;55.36
64679;BME280;51094;53.864;27.676;2023-04-15T02:16:49;99357.75;;;7.83;55.66
64679;BME280;51094;53.864;27.676;2023-04-15T02:19:16;99257.94;;;6.89;55.66
64679;BME280;51094;53.864;27.676;2023-04-15T02:21:43;99446.38;;;8.32;55.96
64679;BME280;51094;53.864;27.676;2023-04-15T02:24:10;99270.38;;;7.28;56.00
64679;BME280;51094;53.864;27.676;2023-04-15T02:26:40;99384.88;;;7.91;55.48
64679;BME280;51094;53.864;27.676;2023-04-15T02:29:07;99358.75;;;7.80;54.87
64679;BME280;51094;53.864;27.676;2023-04-15T02:31:33;99239.53;;;7.09;55.17
64679;BME280;51094;53.864;27.676;2023-04-15T02:34:06;99429.25;;;8.15;55.10
64679;BME280;51094;53.864;27.676;2023-04-15T02:36:32;99415.72;;;8.10;55.79
64679;BME280;51094;53.864;27.676;2023-04-15T02:39:00;99415.47;;;8.15;56.28
64679;BME280;51094;53.864;27.676;2023-04-15T02:41:28;99440.53;;;8.28;55.30
64679;BME280;51094;53.864;27.676;2023-04-15T02:43:56;99380.53;;;7.92;55.24
64679;BME280;51094;53.864;27.676;2023-04-15T02:46:23;99344.69;;;7.70;56.12
64679;BME280;51094;53.864;27.676;2023-04-15T02:48:50;99337.84;;;7.69;56.13
64679;BME280;51094;53.864;27.676;2023-04-15T02:51:20;99367.47;;;7.79;56.36
64679;BME280;51094;53.864;27.676;2023-04-15T02:53:48;99444.88;;;8.28;55.60
64679;BME280;51094;53.864;27.676;2023-04-15T02:56:15;99372.44;;;7.82;55.88
64679;BME280;51094;53.864;27.676;2023-04-15T02:58:43;99440.53;;;8.28;56.04
64679;BME280;51094;53.864;27.676;2023-04-15T03:01:11;99413.19;;;7.94;55.91
64679;BME280;51094;53.864;27.676;2023-04-15T03:03:39;99372.34;;;7.84;55.77
64679;BME280;51094;53.864;27.676;2023-04-15T03:06:06;99448.22;;;8.30;56.08
64679;BME280;51094;53.864;27.676;2023-04-15T03:08:34;99419.06;;;8.12;55.42
64679;BME280;51094;53.864;27.676;2023-04-15T03:11:02;99435.34;;;8.14;55.52
64679;BME280;51094;53.864;27.676;2023-04-15T03:13:30;99377.91;;;7.78;55.72
64679;BME280;51094;53.864;27.676;2023-04-15T03:16:01;99465.44;;;8.31;56.57
64679;BME280;51094;53.864;27.676;2023-04-15T03:18:30;99406.16;;;7.96;56.07
64679;BME280;51094;53.864;27.676;2023-04-15T03:21:00;99376.78;;;7.67;55.83
64679;BME280;51094;53.864;27.676;2023-04-15T03:23:30;99441.88;;;8.06;56.30
64679;BME280;51094;53.864;27.676;2023-04-15T03:25:57;99450.16;;;8.12;56.19
64679;BME280;51094;53.864;27.676;2023-04-15T03:28:26;99469.31;;;8.24;55.81
64679;BME280;51094;53.864;27.676;2023-04-15T03:30:55;99413.13;;;7.80;56.25
64679;BME280;51094;53.864;27.676;2023-04-15T03:33:22;99456.81;;;8.16;55.64
64679;BME280;51094;53.864;27.676;2023-04-15T03:35:50;99430.69;;;8.05;56.63
64679;BME280;51094;53.864;27.676;2023-04-15T03:38:17;99432.63;;;8.01;55.73
64679;BME280;51094;53.864;27.676;2023-04-15T03:40:45;99368.63;;;7.44;55.92
64679;BME280;51094;53.864;27.676;2023-04-15T03:43:12;99477.91;;;8.24;56.04
64679;BME280;51094;53.864;27.676;2023-04-15T03:45:39;99482.81;;;8.29;56.87
64679;BME280;51094;53.864;27.676;2023-04-15T03:48:06;99389.44;;;7.72;56.15
64679;BME280;51094;53.864;27.676;2023-04-15T03:50:43;99503.13;;;8.07;56.41
64679;BME280;51094;53.864;27.676;2023-04-15T03:53:09;99331.28;;;7.33;56.09
64679;BME280;51094;53.864;27.676;2023-04-15T03:55:36;99486.50;;;8.25;56.22
64679;BME280;51094;53.864;27.676;2023-04-15T03:58:03;99490.03;;;8.24;55.96
64679;BME280;51094;53.864;27.676;2023-04-15T04:00:30;99433.13;;;7.92;56.24
64679;BME280;51094;53.864;27.676;2023-04-15T04:02:57;99356.25;;;7.49;56.40
64679;BME280;51094;53.864;27.676;2023-04-15T04:05:24;99395.47;;;7.73;56.81
64679;BME280;51094;53.864;27.676;2023-04-15T04:07:51;99276.41;;;6.97;56.54
64679;BME280;51094;53.864;27.676;2023-04-15T04:10:18;99352.44;;;7.40;55.99
64679;BME280;51094;53.864;27.676;2023-04-15T04:12:45;99355.38;;;7.34;56.02
64679;BME280;51094;53.864;27.676;2023-04-15T04:15:12;99450.09;;;7.82;56.33
64679;BME280;51094;53.864;27.676;2023-04-15T04:17:39;99366.09;;;7.58;55.99
64679;BME280;51094;53.864;27.676;2023-04-15T04:20:06;99505.09;;;8.33;56.82
64679;BME280;51094;53.864;27.676;2023-04-15T04:22:37;99380.09;;;7.70;56.35
64679;BME280;51094;53.864;27.676;2023-04-15T04:25:06;99384.28;;;7.72;56.58
64679;BME280;51094;53.864;27.676;2023-04-15T04:27:34;99352.72;;;7.20;56.70
64679;BME280;51094;53.864;27.676;2023-04-15T04:30:01;99484.50;;;8.30;56.68
64679;BME280;51094;53.864;27.676;2023-04-15T04:32:27;99489.69;;;8.30;57.03
64679;BME280;51094;53.864;27.676;2023-04-15T04:34:54;99488.09;;;8.27;57.13
64679;BME280;51094;53.864;27.676;2023-04-15T04:37:22;99498.47;;;8.27;56.50
64679;BME280;51094;53.864;27.676;2023-04-15T04:39:49;99359.22;;;7.27;56.76
64679;BME280;51094;53.864;27.676;2023-04-15T04:42:16;99235.03;;;6.67;57.12
64679;BME280;51094;53.864;27.676;2023-04-15T04:44:43;99510.75;;;8.40;56.80
64679;BME280;51094;53.864;27.676;2023-04-15T04:47:10;99494.53;;;8.36;57.08
64679;BME280;51094;53.864;27.676;2023-04-15T04:49:37;99496.22;;;8.37;56.09
64679;BME280;51094;53.864;27.676;2023-04-15T04:52:03;99370.81;;;7.36;55.89
64679;BME280;51094;53.864;27.676;2023-04-15T04:54:30;99502.53;;;8.31;56.08
64679;BME280;51094;53.864;27.676;2023-04-15T04:56:57;99493.38;;;8.26;56.55
64679;BME280;51094;53.864;27.676;2023-04-15T04:59:24;99507.91;;;8.28;56.69
64679;BME280;51094;53.864;27.676;2023-04-15T05:01:51;99481.75;;;7.87;55.35
64679;BME280;51094;53.864;27.676;2023-04-15T05:04:18;99527.97;;;8.25;55.49
64679;BME280;51094;53.864;27.676;2023-04-15T05:06:45;99415.75;;;7.64;56.19
64679;BME280;51094;53.864;27.676;2023-04-15T05:09:12;99399.91;;;7.55;56.43
64679;BME280;51094;53.864;27.676;2023-04-15T05:11:39;99424.84;;;7.72;55.35
64679;BME280;51094;53.864;27.676;2023-04-15T05:14:05;99521.09;;;8.24;55.72
64679;BME280;51094;53.864;27.676;2023-04-15T05:16:33;99328.94;;;7.13;55.57
64679;BME280;51094;53.864;27.676;2023-04-15T05:18:59;99407.91;;;7.66;56.55
64679;BME280;51094;53.864;27.676;2023-04-15T05:21:27;99529.47;;;8.45;55.10
64679;BME280;51094;53.864;27.676;2023-04-15T05:23:53;99526.59;;;8.49;55.22
64679;BME280;51094;53.864;27.676;2023-04-15T05:26:20;99489.59;;;8.31;55.75
64679;BME280;51094;53.864;27.676;2023-04-15T05:28:47;99529.78;;;8.54;54.42
64679;BME280;51094;53.864;27.676;2023-04-15T05:31:15;99511.88;;;8.50;54.65
64679;BME280;51094;53.864;27.676;2023-04-15T05:33:42;99532.38;;;8.54;54.31
64679;BME280;51094;53.864;27.676;2023-04-15T05:36:09;99537.72;;;8.51;55.51
64679;BME280;51094;53.864;27.676;2023-04-15T05:38:36;99434.66;;;7.81;54.71
64679;BME280;51094;53.864;27.676;2023-04-15T05:41:03;99443.31;;;7.95;54.19
64679;BME280;51094;53.864;27.676;2023-04-15T05:43:30;99378.94;;;7.59;53.69
64679;BME280;51094;53.864;27.676;2023-04-15T05:45:57;99532.47;;;8.67;53.68
64679;BME280;51094;53.864;27.676;2023-04-15T05:48:24;99465.06;;;8.23;53.38
64679;BME280;51094;53.864;27.676;2023-04-15T05:50:50;99396.31;;;7.87;52.81
64679;BME280;51094;53.864;27.676;2023-04-15T05:53:17;99410.41;;;7.97;52.92
64679;BME280;51094;53.864;27.676;2023-04-15T05:55:44;99397.97;;;7.74;52.75
64679;BME280;51094;53.864;27.676;2023-04-15T05:58:11;99429.19;;;8.01;52.98
64679;BME280;51094;53.864;27.676;2023-04-15T06:00:38;99537.03;;;8.78;51.54
64679;BME280;51094;53.864;27.676;2023-04-15T06:03:05;99556.75;;;8.80;51.88
64679;BME280;51094;53.864;27.676;2023-04-15T06:05:33;99395.56;;;7.85;51.84
64679;BME280;51094;53.864;27.676;2023-04-15T06:08:00;99545.94;;;8.88;52.41
64679;BME280;51094;53.864;27.676;2023-04-15T06:10:27;99555.38;;;8.89;50.74
64679;BME280;51094;53.864;27.676;2023-04-15T06:12:54;99513.69;;;8.63;51.73
64679;BME280;51094;53.864;27.676;2023-04-15T06:15:21;99551.22;;;8.86;51.42
64679;BME280;51094;53.864;27.676;2023-04-15T06:17:48;99557.41;;;8.84;50.89
64679;BME280;51094;53.864;27.676;2023-04-15T06:20:15;99513.94;;;8.59;50.60
64679;BME280;51094;53.864;27.676;2023-04-15T06:22:42;99569.41;;;9.00;51.39
64679;BME280;51094;53.864;27.676;2023-04-15T06:25:09;99472.75;;;8.54;51.09
64679;BME280;51094;53.864;27.676;2023-04-15T06:27:36;99523.34;;;8.90;49.78
64679;BME280;51094;53.864;27.676;2023-04-15T06:30:04;99509.34;;;8.78;50.80
64679;BME280;51094;53.864;27.676;2023-04-15T06:32:31;99498.50;;;8.72;50.14
64679;BME280;51094;53.864;27.676;2023-04-15T06:34:58;99577.09;;;9.02;48.57
64679;BME280;51094;53.864;27.676;2023-04-15T06:37:25;99586.16;;;8.95;48.47
64679;BME280;51094;53.864;27.676;2023-04-15T06:39:52;99548.13;;;8.80;49.49
64679;BME280;51094;53.864;27.676;2023-04-15T06:42:18;99578.75;;;9.03;49.66
64679;BME280;51094;53.864;27.676;2023-04-15T06:44:47;99580.03;;;9.10;49.84
64679;BME280;51094;53.864;27.676;2023-04-15T06:47:14;99503.84;;;8.68;49.59
64679;BME280;51094;53.864;27.676;2023-04-15T06:49:40;99576.44;;;9.27;48.85
64679;BME280;51094;53.864;27.676;2023-04-15T06:52:09;99579.78;;;9.29;48.55
64679;BME280;51094;53.864;27.676;2023-04-15T06:54:36;99579.50;;;9.19;47.75
64679;BME280;51094;53.864;27.676;2023-04-15T06:57:03;99587.28;;;9.05;48.69
64679;BME280;51094;53.864;27.676;2023-04-15T06:59:33;99579.41;;;9.07;49.90
64679;BME280;51094;53.864;27.676;2023-04-15T07:02:00;99503.09;;;8.66;48.25
64679;BME280;51094;53.864;27.676;2023-04-15T07:04:27;99577.06;;;9.16;48.27
64679;BME280;51094;53.864;27.676;2023-04-15T07:06:53;99583.75;;;9.06;48.79
64679;BME280;51094;53.864;27.676;2023-04-15T07:09:23;99530.91;;;8.64;47.77
64679;BME280;51094;53.864;27.676;2023-04-15T07:11:50;99574.66;;;8.99;49.08
64679;BME280;51094;53.864;27.676;2023-04-15T07:14:17;99512.28;;;8.58;47.64
64679;BME280;51094;53.864;27.676;2023-04-15T07:16:44;99570.69;;;9.08;48.28
64679;BME280;51094;53.864;27.676;2023-04-15T07:19:11;99573.00;;;9.12;47.93
64679;BME280;51094;53.864;27.676;2023-04-15T07:21:37;99533.81;;;8.88;46.68
64679;BME280;51094;53.864;27.676;2023-04-15T07:24:07;99572.81;;;9.15;47.12
64679;BME280;51094;53.864;27.676;2023-04-15T07:26:36;99562.00;;;9.09;47.64
64679;BME280;51094;53.864;27.676;2023-04-15T07:29:02;99468.03;;;8.61;46.62
64679;BME280;51094;53.864;27.676;2023-04-15T07:31:29;99492.41;;;8.87;46.98
64679;BME280;51094;53.864;27.676;2023-04-15T07:33:56;99579.69;;;9.45;45.52
64679;BME280;51094;53.864;27.676;2023-04-15T07:36:24;99551.31;;;9.27;46.28
64679;BME280;51094;53.864;27.676;2023-04-15T07:38:51;99576.41;;;9.55;47.46
64679;BME280;51094;53.864;27.676;2023-04-15T07:41:18;99578.16;;;9.69;46.92
64679;BME280;51094;53.864;27.676;2023-04-15T07:43:46;99520.66;;;9.20;46.06
64679;BME280;51094;53.864;27.676;2023-04-15T07:46:14;99483.78;;;9.00;45.11
64679;BME280;51094;53.864;27.676;2023-04-15T07:48:41;99491.56;;;9.00;46.15
64679;BME280;51094;53.864;27.676;2023-04-15T07:51:08;99585.97;;;9.55;45.79
64679;BME280;51094;53.864;27.676;2023-04-15T07:53:36;99574.13;;;9.51;44.53
64679;BME280;51094;53.864;27.676;2023-04-15T07:56:03;99572.66;;;9.47;45.21
64679;BME280;51094;53.864;27.676;2023-04-15T07:58:31;99596.63;;;9.64;45.77
64679;BME280;51094;53.864;27.676;2023-04-15T08:00:57;99589.59;;;9.66;45.67
64679;BME280;51094;53.864;27.676;2023-04-15T08:03:24;99521.09;;;9.41;45.83
64679;BME280;51094;53.864;27.676;2023-04-15T08:05:51;99572.03;;;9.84;44.10
64679;BME280;51094;53.864;27.676;2023-04-15T08:08:18;99594.59;;;10.11;44.48
64679;BME280;51094;53.864;27.676;2023-04-15T08:10:45;99594.66;;;10.38;45.04
64679;BME280;51094;53.864;27.676;2023-04-15T08:13:12;99443.72;;;9.60;43.35
64679;BME280;51094;53.864;27.676;2023-04-15T08:15:39;99596.88;;;10.56;42.20
64679;BME280;51094;53.864;27.676;2023-04-15T08:18:06;99529.34;;;10.15;42.40
64679;BME280;51094;53.864;27.676;2023-04-15T08:20:33;99550.94;;;10.30;43.64
64679;BME280;51094;53.864;27.676;2023-04-15T08:23:00;99531.72;;;10.32;42.24
64679;BME280;51094;53.864;27.676;2023-04-15T08:25:27;99596.66;;;10.59;42.56
64679;BME280;51094;53.864;27.676;2023-04-15T08:27:55;99607.06;;;10.59;42.29
64679;BME280;51094;53.864;27.676;2023-04-15T08:30:23;99566.25;;;10.35;40.50
64679;BME280;51094;53.864;27.676;2023-04-15T08:32:50;99595.38;;;10.40;41.18
64679;BME280;51094;53.864;27.676;2023-04-15T08:35:17;99596.81;;;10.31;41.24
64679;BME280;51094;53.864;27.676;2023-04-15T08:37:44;99529.28;;;10.02;40.42
64679;BME280;51094;53.864;27.676;2023-04-15T08:40:11;99583.91;;;10.29;41.58
64679;BME280;51094;53.864;27.676;2023-04-15T08:42:48;99554.72;;;9.97;41.77
64679;BME280;51094;53.864;27.676;2023-04-15T08:45:17;99603.59;;;10.05;42.83
64679;BME280;51094;53.864;27.676;2023-04-15T08:47:44;99612.53;;;10.01;41.45
64679;BME280;51094;53.864;27.676;2023-04-15T08:50:13;99557.41;;;9.55;41.47
64679;BME280;51094;53.864;27.676;2023-04-15T08:52:40;99614.97;;;9.90;42.60
64679;BME280;51094;53.864;27.676;2023-04-15T08:55:08;99598.22;;;9.67;42.39
64679;BME280;51094;53.864;27.676;2023-04-15T08:57:36;99471.84;;;8.84;43.23
64679;BME280;51094;53.864;27.676;2023-04-15T09:00:04;99607.38;;;9.58;42.17
64679;BME280;51094;53.864;27.676;2023-04-15T09:02:32;99582.66;;;9.53;44.79
64679;BME280;51094;53.864;27.676;2023-04-15T09:04:59;99594.38;;;9.87;44.24
64679;BME280;51094;53.864;27.676;2023-04-15T09:07:26;99574.53;;;9.86;43.41
64679;BME280;51094;53.864;27.676;2023-04-15T09:09:53;99561.25;;;9.90;44.13
64679;BME280;51094;53.864;27.676;2023-04-15T09:12:20;99589.50;;;10.23;43.68
64679;BME280;51094;53.864;27.676;2023-04-15T09:14:47;99546.44;;;9.78;42.99
64679;BME280;51094;53.864;27.676;2023-04-15T09:17:18;99549.69;;;9.67;42.39
64679;BME280;51094;53.864;27.676;2023-04-15T09:19:46;99605.81;;;9.84;43.84
64679;BME280;51094;53.864;27.676;2023-04-15T09:22:14;99608.97;;;9.75;43.07
64679;BME280;51094;53.864;27.676;2023-04-15T09:24:40;99607.59;;;9.96;43.14
64679;BME280;51094;53.864;27.676;2023-04-15T09:27:09;99577.59;;;9.92;43.51
64679;BME280;51094;53.864;27.676;2023-04-15T09:29:36;99584.59;;;10.05;43.61
64679;BME280;51094;53.864;27.676;2023-04-15T09:32:13;99615.00;;;10.17;42.76
64679;BME280;51094;53.864;27.676;2023-04-15T09:34:41;99611.31;;;10.07;43.29
64679;BME280;51094;53.864;27.676;2023-04-15T09:37:08;99604.09;;;9.97;43.32
64679;BME280;51094;53.864;27.676;2023-04-15T09:39:50;99609.50;;;9.94;45.14
64679;BME280;51094;53.864;27.676;2023-04-15T09:42:17;99523.44;;;9.31;43.45
64679;BME280;51094;53.864;27.676;2023-04-15T09:44:54;99626.22;;;9.76;42.96
64679;BME280;51094;53.864;27.676;2023-04-15T09:47:28;99597.00;;;9.30;43.25
64679;BME280;51094;53.864;27.676;2023-04-15T09:50:00;99624.25;;;9.65;43.61
64679;BME280;51094;53.864;27.676;2023-04-15T09:52:28;99604.63;;;9.47;42.81
64679;BME280;51094;53.864;27.676;2023-04-15T09:54:58;99615.84;;;9.48;44.15
64679;BME280;51094;53.864;27.676;2023-04-15T09:57:33;99609.81;;;9.33;44.75
64679;BME280;51094;53.864;27.676;2023-04-15T10:00:06;99574.56;;;8.86;43.70
64679;BME280;51094;53.864;27.676;2023-04-15T10:02:34;99602.28;;;9.14;44.03
64679;BME280;51094;53.864;27.676;2023-04-15T10:05:03;99605.16;;;9.24;43.66
64679;BME280;51094;53.864;27.676;2023-04-15T10:07:30;99593.03;;;9.24;44.75
64679;BME280;51094;53.864;27.676;2023-04-15T10:09:58;99594.13;;;9.06;44.58
64679;BME280;51094;53.864;27.676;2023-04-15T10:12:26;99587.91;;;8.94;44.03
64679;BME280;51094;53.864;27.676;2023-04-15T10:15:03;99609.31;;;9.12;45.29
64679;BME280;51094;53.864;27.676;2023-04-15T10:17:32;99551.38;;;8.83;44.86
64679;BME280;51094;53.864;27.676;2023-04-15T10:20:02;99571.59;;;8.92;45.25
64679;BME280;51094;53.864;27.676;2023-04-15T10:22:31;99613.78;;;9.24;44.58
64679;BME280;51094;53.864;27.676;2023-04-15T10:24:59;99609.78;;;9.19;44.16
64679;BME280;51094;53.864;27.676;2023-04-15T10:27:26;99509.50;;;8.61;44.04
64679;BME280;51094;53.864;27.676;2023-04-15T10:29:55;99607.56;;;9.27;44.28
64679;BME280;51094;53.864;27.676;2023-04-15T10:32:24;99592.84;;;9.27;44.46
64679;BME280;51094;53.864;27.676;2023-04-15T10:34:52;99535.66;;;9.00;44.54
64679;BME280;51094;53.864;27.676;2023-04-15T10:37:21;99616.41;;;9.53;44.23
64679;BME280;51094;53.864;27.676;2023-04-15T10:39:48;99614.53;;;9.55;43.23
64679;BME280;51094;53.864;27.676;2023-04-15T10:46:33;99647.44;;;9.68;42.43
64679;BME280;51094;53.864;27.676;2023-04-15T10:49:14;99619.53;;;9.58;43.77
64679;BME280;51094;53.864;27.676;2023-04-15T10:51:44;99620.63;;;9.82;43.56
64679;BME280;51094;53.864;27.676;2023-04-15T10:54:16;99538.81;;;9.48;41.25
64679;BME280;51094;53.864;27.676;2023-04-15T10:59:36;99616.66;;;10.18;41.44
64679;BME280;51094;53.864;27.676;2023-04-15T11:02:05;99618.25;;;10.06;40.76
64679;BME280;51094;53.864;27.676;2023-04-15T11:04:52;99614.47;;;9.97;41.97
64679;BME280;51094;53.864;27.676;2023-04-15T11:12:50;99620.69;;;10.23;40.75
64679;BME280;51094;53.864;27.676;2023-04-15T11:17:56;99613.78;;;10.37;41.09
64679;BME280;51094;53.864;27.676;2023-04-15T11:20:24;99623.47;;;10.47;41.18
64679;BME280;51094;53.864;27.676;2023-04-15T11:22:54;99575.66;;;10.23;40.99
64679;BME280;51094;53.864;27.676;2023-04-15T11:25:41;99609.72;;;10.45;38.90
64679;BME280;51094;53.864;27.676;2023-04-15T11:28:10;99589.75;;;10.33;40.31
64679;BME280;51094;53.864;27.676;2023-04-15T11:30:37;99584.75;;;10.43;41.25
64679;BME280;51094;53.864;27.676;2023-04-15T11:33:06;99554.44;;;10.56;42.52
64679;BME280;51094;53.864;27.676;2023-04-15T11:35:34;99596.53;;;11.13;40.08
64679;BME280;51094;53.864;27.676;2023-04-15T11:38:07;99599.47;;;11.21;39.65
64679;BME280;51094;53.864;27.676;2023-04-15T11:40:34;99573.13;;;11.26;39.41
64679;BME280;51094;53.864;27.676;2023-04-15T11:43:12;99602.16;;;11.58;37.89
64679;BME280;51094;53.864;27.676;2023-04-15T11:45:59;99558.94;;;11.43;38.74
64679;BME280;51094;53.864;27.676;2023-04-15T11:48:35;99629.44;;;11.65;38.37
64679;BME280;51094;53.864;27.676;2023-04-15T11:51:04;99604.00;;;11.81;39.26
64679;BME280;51094;53.864;27.676;2023-04-15T11:53:42;99598.13;;;11.90;38.18
64679;BME280;51094;53.864;27.676;2023-04-15T11:56:18;99604.50;;;11.86;36.15
64679;BME280;51094;53.864;27.676;2023-04-15T11:58:47;99605.66;;;11.82;37.76
64679;BME280;51094;53.864;27.676;2023-04-15T12:01:16;99609.28;;;11.92;37.06
64679;BME280;51094;53.864;27.676;2023-04-15T12:03:47;99596.56;;;12.01;37.88
64679;BME280;51094;53.864;27.676;2023-04-15T12:06:23;99609.88;;;12.09;37.83
64679;BME280;51094;53.864;27.676;2023-04-15T12:11:51;99614.75;;;11.64;37.76
64679;BME280;51094;53.864;27.676;2023-04-15T12:16:57;99593.28;;;11.35;38.13
64679;BME280;51094;53.864;27.676;2023-04-15T12:19:40;99610.69;;;11.34;37.59
64679;BME280;51094;53.864;27.676;2023-04-15T12:22:15;99576.34;;;11.17;38.36
64679;BME280;51094;53.864;27.676;2023-04-15T12:24:43;99603.59;;;11.49;38.85
64679;BME280;51094;53.864;27.676;2023-04-15T12:27:15;99647.16;;;11.22;38.15
64679;BME280;51094;53.864;27.676;2023-04-15T12:29:42;99586.31;;;10.85;39.23
64679;BME280;51094;53.864;27.676;2023-04-15T12:32:13;99602.97;;;10.95;40.09
64679;BME280;51094;53.864;27.676;2023-04-15T12:34:49;99526.91;;;10.26;38.77
64679;BME280;51094;53.864;27.676;2023-04-15T12:37:16;99547.91;;;10.23;37.61
64679;BME280;51094;53.864;27.676;2023-04-15T12:39:45;99605.13;;;10.36;38.61
64679;BME280;51094;53.864;27.676;2023-04-15T12:42:15;99607.41;;;10.28;39.77
64679;BME280;51094;53.864;27.676;2023-04-15T12:44:43;99590.88;;;10.15;40.05
64679;BME280;51094;53.864;27.676;2023-04-15T12:47:10;99598.03;;;10.11;40.17
64679;BME280;51094;53.864;27.676;2023-04-15T12:49:38;99573.69;;;9.85;39.49
64679;BME280;51094;53.864;27.676;2023-04-15T12:52:05;99547.09;;;9.67;40.06
64679;BME280;51094;53.864;27.676;2023-04-15T12:54:32;99590.81;;;10.02;40.64
64679;BME280;51094;53.864;27.676;2023-04-15T12:57:00;99596.25;;;10.12;40.42
64679;BME280;51094;53.864;27.676;2023-04-15T12:59:28;99599.53;;;10.01;39.74
64679;BME280;51094;53.864;27.676;2023-04-15T13:01:55;99595.34;;;9.98;39.45
64679;BME280;51094;53.864;27.676;2023-04-15T13:04:23;99482.94;;;9.28;40.63
64679;BME280;51094;53.864;27.676;2023-04-15T13:06:50;99516.09;;;9.52;39.86
64679;BME280;51094;53.864;27.676;2023-04-15T13:09:17;99588.06;;;9.91;38.79
64679;BME280;51094;53.864;27.676;2023-04-15T13:11:44;99526.13;;;9.44;39.52
64679;BME280;51094;53.864;27.676;2023-04-15T13:14:10;99514.72;;;9.32;39.80
64679;BME280;51094;53.864;27.676;2023-04-15T13:16:38;99590.69;;;9.77;38.91
64679;BME280;51094;53.864;27.676;2023-04-15T13:19:06;99595.31;;;9.72;38.29
64679;BME280;51094;53.864;27.676;2023-04-15T13:21:33;99601.06;;;9.77;39.44
64679;BME280;51094;53.864;27.676;2023-04-15T13:24:02;99618.22;;;9.79;39.96